Time;durP1;ratioP1;P1;durP2;ratioP2;P2;SDS_P1;SDS_P2;PMS_P1;PMS_P2;Temp;Humidity;BMP_temperature;BMP_pressure;BME280_temperature;BME280_humidity;BME280_pressure;Samples;Min_cycle;Max_cycle;Signal;HPM_P1;HPM_P2
2022/01/10 00:00:34;;;;;;;9.50;6.35;;;;;;;10.44;53.21;99640.50;5026669;28;20131;-68
2022/01/10 00:03:01;;;;;;;9.10;6.05;;;;;;;10.46;53.27;99651.56;5043099;28;20107;-68
2022/01/10 00:05:27;;;;;;;10.38;6.32;;;;;;;10.45;53.17;99644.72;5048376;28;20021;-68
2022/01/10 00:07:52;;;;;;;9.50;6.35;;;;;;;10.44;53.28;99656.94;5048514;28;20035;-68
2022/01/10 00:10:18;;;;;;;9.90;6.50;;;;;;;10.44;53.28;99656.13;5047414;28;20036;-68
2022/01/10 00:12:45;;;;;;;8.45;5.75;;;;;;;10.43;53.38;99654.50;5029930;28;20025;-67
2022/01/10 00:15:12;;;;;;;9.40;5.97;;;;;;;10.42;53.50;99652.84;5029079;28;20031;-68
2022/01/10 00:17:38;;;;;;;8.52;5.50;;;;;;;10.41;53.34;99651.22;5046722;28;20031;-68
2022/01/10 00:20:09;;;;;;;10.48;5.90;;;;;;;10.41;53.33;99654.66;5046230;28;20045;-68
2022/01/10 00:22:36;;;;;;;8.98;6.00;;;;;;;10.42;53.28;99658.88;5044908;28;20033;-68
2022/01/10 00:25:03;;;;;;;9.10;5.32;;;;;;;10.42;53.37;99655.47;5026880;28;20584;-68
2022/01/10 00:27:29;;;;;;;10.05;6.25;;;;;;;10.40;53.34;99647.81;5047371;28;20498;-68
2022/01/10 00:29:54;;;;;;;9.57;5.22;;;;;;;10.42;53.50;99658.06;5047580;28;20103;-69
2022/01/10 00:32:20;;;;;;;8.13;5.30;;;;;;;10.42;53.30;99658.88;5046436;28;20103;-67
2022/01/10 00:34:46;;;;;;;7.53;5.18;;;;;;;10.43;53.22;99663.13;5028670;28;20053;-68
2022/01/10 00:37:11;;;;;;;7.30;4.82;;;;;;;10.41;53.39;99659.03;5046387;28;20027;-68
2022/01/10 00:39:36;;;;;;;8.20;5.53;;;;;;;10.42;53.33;99668.47;5045739;28;20048;-68
2022/01/10 00:42:02;;;;;;;7.63;4.97;;;;;;;10.42;53.50;99652.84;5048089;28;20032;-68
2022/01/10 00:44:31;;;;;;;6.78;4.88;;;;;;;10.41;53.39;99652.03;5043931;28;20044;-68
2022/01/10 00:46:57;;;;;;;9.35;5.43;;;;;;;10.40;53.30;99657.44;5046662;28;20157;-67
2022/01/10 00:49:22;;;;;;;7.10;4.00;;;;;;;10.41;53.37;99657.25;5047203;28;20496;-67
2022/01/10 00:51:48;;;;;;;8.10;4.82;;;;;;;10.41;53.02;99661.66;5048001;28;20024;-67
2022/01/10 00:54:13;;;;;;;8.88;5.55;;;;;;;10.41;53.44;99661.66;5046093;28;20044;-68
2022/01/10 00:56:39;;;;;;;7.60;5.03;;;;;;;10.40;53.25;99660.84;5045681;28;20020;-68
2022/01/10 00:59:05;;;;;;;8.70;5.63;;;;;;;10.41;53.38;99659.03;5046276;28;20041;-68
2022/01/10 01:01:30;;;;;;;7.40;4.78;;;;;;;10.41;53.52;99672.06;5044939;28;20449;-67
2022/01/10 01:03:56;;;;;;;8.88;4.82;;;;;;;10.41;53.43;99659.84;5047279;28;20105;-68
2022/01/10 01:06:21;;;;;;;8.10;4.93;;;;;;;10.43;53.37;99664.91;5043732;28;20029;-67
2022/01/10 01:08:47;;;;;;;5.97;4.13;;;;;;;10.42;53.35;99660.66;5047053;28;20033;-68
2022/01/10 01:14:05;;;;;;;8.45;4.53;;;;;;;10.40;53.46;99676.47;5047723;28;20051;-68
2022/01/10 01:17:33;;;;;;;8.25;5.03;;;;;;;10.40;53.59;99662.66;5026979;28;20071;-68
2022/01/10 01:24:27;;;;;;;7.45;4.57;;;;;;;10.39;53.47;99669.66;5045839;28;20442;-68
2022/01/10 01:26:53;;;;;;;7.22;4.20;;;;;;;10.39;53.49;99648.81;5044073;28;20036;-67
2022/01/10 01:29:22;;;;;;;7.85;4.47;;;;;;;10.40;53.53;99665.25;5046201;28;20029;-67
2022/01/10 01:31:48;;;;;;;8.55;5.03;;;;;;;10.40;53.47;99660.06;5045116;28;20036;-68
2022/01/10 01:34:15;;;;;;;7.07;4.68;;;;;;;10.40;53.52;99649.63;5029111;28;20021;-67
2022/01/10 01:36:50;;;;;;;6.68;4.45;;;;;;;10.42;53.46;99652.84;5044767;28;20041;-68
2022/01/10 01:39:20;;;;;;;6.57;4.10;;;;;;;10.39;53.51;99650.59;5029039;28;20159;-68
2022/01/10 01:41:47;;;;;;;6.93;3.80;;;;;;;10.39;53.38;99648.81;5027610;28;20032;-67
2022/01/10 01:44:12;;;;;;;6.00;4.03;;;;;;;10.40;53.71;99649.63;5026536;28;20029;-68
2022/01/10 01:46:38;;;;;;;5.20;3.88;;;;;;;10.39;53.33;99643.63;5044837;28;20111;-67
2022/01/10 01:49:06;;;;;;;6.93;4.35;;;;;;;10.38;53.53;99633.34;5042410;28;20039;-67
2022/01/10 01:51:33;;;;;;;6.38;4.22;;;;;;;10.37;53.55;99640.34;5045470;28;20061;-67
2022/01/10 01:53:59;;;;;;;6.03;3.95;;;;;;;10.38;53.63;99631.56;5046350;28;20020;-68
2022/01/10 01:56:25;;;;;;;6.13;4.07;;;;;;;10.39;53.46;99643.63;5043869;28;20063;-68
2022/01/10 01:58:55;;;;;;;6.05;3.97;;;;;;;10.38;53.64;99641.97;5046969;28;20393;-67
2022/01/10 02:01:22;;;;;;;7.47;4.47;;;;;;;10.38;53.59;99641.97;5023981;28;20598;-67
2022/01/10 02:03:48;;;;;;;5.60;3.83;;;;;;;10.38;53.48;99643.78;5042743;28;20021;-67
2022/01/10 02:06:14;;;;;;;7.38;4.38;;;;;;;10.39;53.51;99629.78;5027820;28;20438;-68
2022/01/10 02:08:41;;;;;;;6.45;3.78;;;;;;;10.38;53.51;99634.16;5046845;28;20032;-68
2022/01/10 02:11:10;;;;;;;5.93;3.70;;;;;;;10.38;53.63;99634.16;5045235;28;20029;-67
2022/01/10 02:13:36;;;;;;;6.68;4.10;;;;;;;10.39;53.60;99642.81;5046157;28;20107;-68
2022/01/10 02:16:05;;;;;;;6.30;4.00;;;;;;;10.39;53.69;99634.97;5044479;28;20112;-68
2022/01/10 02:18:31;;;;;;;6.90;4.00;;;;;;;10.38;53.60;99630.75;5026572;28;20041;-69
2022/01/10 02:21:00;;;;;;;6.45;4.00;;;;;;;10.38;53.58;99647.19;5042169;28;20045;-67
2022/01/10 02:23:26;;;;;;;6.00;3.97;;;;;;;10.38;53.80;99633.34;5027039;28;20044;-67
2022/01/10 02:25:51;;;;;;;4.80;3.45;;;;;;;10.38;53.66;99633.34;5045246;28;20032;-67
2022/01/10 02:28:17;;;;;;;6.60;3.55;;;;;;;10.36;53.75;99640.50;5044622;28;20496;-68
2022/01/10 02:30:43;;;;;;;5.68;3.92;;;;;;;10.36;53.71;99640.50;5043320;28;20128;-67
2022/01/10 02:33:09;;;;;;;8.25;4.10;;;;;;;10.36;53.74;99637.91;5043614;28;20380;-68
2022/01/10 02:35:43;;;;;;;6.15;3.85;;;;;;;10.37;53.80;99642.16;5041420;28;20027;-67
2022/01/10 02:38:09;;;;;;;6.57;3.30;;;;;;;10.37;53.76;99636.94;5024979;28;20033;-67
2022/01/10 02:40:35;;;;;;;4.93;3.22;;;;;;;10.37;53.68;99636.94;5046269;28;20044;-67
2022/01/10 02:43:05;;;;;;;5.75;3.33;;;;;;;10.37;53.56;99626.53;5026491;28;20349;-67
2022/01/10 02:45:31;;;;;;;5.63;3.30;;;;;;;10.37;53.76;99634.34;5044423;28;20029;-67
2022/01/10 02:47:56;;;;;;;5.35;3.30;;;;;;;10.38;53.62;99633.34;5044931;28;20055;-66
2022/01/10 02:50:22;;;;;;;7.80;4.10;;;;;;;10.37;53.77;99632.53;5045130;28;20083;-67
2022/01/10 02:52:48;;;;;;;5.93;3.30;;;;;;;10.37;53.72;99640.34;5044771;28;20047;-67
2022/01/10 02:55:14;;;;;;;6.18;3.60;;;;;;;10.37;53.96;99636.94;5045321;28;20131;-67
2022/01/10 02:57:41;;;;;;;4.60;3.38;;;;;;;10.37;53.90;99632.53;5038710;28;20047;-67
2022/01/10 03:00:21;;;;;;;6.25;3.55;;;;;;;10.36;53.68;99627.50;5043481;28;20514;-66
2022/01/10 03:02:50;;;;;;;5.60;3.50;;;;;;;10.37;53.83;99623.91;5042897;28;20036;-67
2022/01/10 03:05:16;;;;;;;8.18;3.60;;;;;;;10.37;53.82;99647.34;5030767;28;20037;-67
2022/01/10 03:07:42;;;;;;;6.00;3.38;;;;;;;10.37;53.81;99642.16;5049987;28;20048;-67
2022/01/10 03:10:08;;;;;;;5.10;2.67;;;;;;;10.36;53.76;99641.34;5047878;28;20033;-67
2022/01/10 03:12:36;;;;;;;4.40;2.97;;;;;;;10.37;53.95;99639.53;5048427;28;20063;-67
2022/01/10 03:15:03;;;;;;;4.78;2.90;;;;;;;10.36;53.77;99643.94;5048534;28;20048;-67
2022/01/10 03:17:29;;;;;;;5.97;3.70;;;;;;;10.38;53.88;99654.19;5048905;28;20565;-67
2022/01/10 03:19:55;;;;;;;6.65;3.30;;;;;;;10.38;53.78;99646.38;5043578;28;20036;-68
2022/01/10 03:22:20;;;;;;;6.30;3.08;;;;;;;10.39;53.84;99650.59;5045935;28;20464;-68
2022/01/10 03:24:46;;;;;;;6.00;3.10;;;;;;;10.37;53.81;99653.38;5048695;28;20025;-66
2022/01/10 03:27:12;;;;;;;4.75;2.75;;;;;;;10.38;53.66;99654.19;5049374;28;20433;-67
2022/01/10 03:29:37;;;;;;;4.57;2.60;;;;;;;10.37;53.89;99660.38;5047752;28;20069;-66
2022/01/10 03:32:05;;;;;;;4.45;2.92;;;;;;;10.38;53.94;99662.00;5046679;28;20044;-67
2022/01/10 03:34:32;;;;;;;5.07;2.90;;;;;;;10.39;53.81;99656.63;5028486;28;20415;-67
2022/01/10 03:36:58;;;;;;;3.55;2.40;;;;;;;10.38;53.82;99652.41;5046274;28;20043;-66
2022/01/10 03:39:24;;;;;;;4.72;2.60;;;;;;;10.39;53.87;99655.81;5046145;28;20089;-66
2022/01/10 03:41:49;;;;;;;4.72;2.47;;;;;;;10.40;53.72;99665.25;5048083;28;20429;-67
2022/01/10 03:44:15;;;;;;;3.75;2.45;;;;;;;10.40;53.68;99670.47;5046761;28;20048;-67
2022/01/10 03:46:41;;;;;;;4.82;2.38;;;;;;;10.39;53.83;99659.22;5049332;28;20116;-67
2022/01/10 03:49:07;;;;;;;4.45;2.65;;;;;;;10.38;53.58;99664.59;5044678;28;20021;-67
2022/01/10 03:51:32;;;;;;;3.63;2.20;;;;;;;10.37;53.95;99661.19;5048881;28;20024;-66
2022/01/10 03:53:58;;;;;;;4.82;2.67;;;;;;;10.38;53.85;99662.81;5046091;28;20484;-67
2022/01/10 03:56:27;;;;;;;4.72;2.67;;;;;;;10.38;53.93;99665.41;5049526;28;20320;-67
2022/01/10 03:58:53;;;;;;;4.80;2.63;;;;;;;10.39;53.58;99655.81;5046430;28;20052;-67
2022/01/10 04:01:19;;;;;;;4.18;2.40;;;;;;;10.39;53.96;99658.41;5035552;28;20029;-67
2022/01/10 04:03:44;;;;;;;2.60;1.55;;;;;;;10.38;53.92;99662.81;5045668;28;20116;-68
2022/01/10 04:06:10;;;;;;;3.67;2.15;;;;;;;10.40;53.91;99670.47;5045971;28;20029;-67
2022/01/10 04:08:36;;;;;;;3.70;1.92;;;;;;;10.39;53.68;99663.63;5048560;28;20119;-66
2022/01/10 04:11:02;;;;;;;3.33;1.73;;;;;;;10.40;53.84;99670.47;5048890;28;20387;-67
2022/01/10 04:13:28;;;;;;;5.95;2.58;;;;;;;10.38;53.79;99668.03;5048544;28;20032;-67
2022/01/10 04:15:53;;;;;;;3.97;1.90;;;;;;;10.38;53.83;99657.59;5045754;28;20381;-67
2022/01/10 04:18:19;;;;;;;2.75;1.88;;;;;;;10.38;53.91;99673.22;5047590;28;20039;-67
2022/01/10 04:20:46;;;;;;;3.50;1.90;;;;;;;10.38;54.00;99667.22;5046015;28;20396;-67
2022/01/10 04:23:13;;;;;;;3.05;1.52;;;;;;;10.38;53.81;99677.63;5045799;28;20028;-67
2022/01/10 04:25:38;;;;;;;3.75;2.05;;;;;;;10.37;53.84;99674.22;5041277;28;20095;-67
2022/01/10 04:28:04;;;;;;;2.88;1.63;;;;;;;10.38;53.77;99673.22;5046098;28;20017;-65
2022/01/10 04:30:30;;;;;;;3.05;1.35;;;;;;;10.38;53.90;99680.22;5044405;28;20024;-67
2022/01/10 04:32:58;;;;;;;3.00;1.55;;;;;;;10.38;53.87;99685.44;5046245;28;20021;-66
2022/01/10 04:35:23;;;;;;;3.05;1.48;;;;;;;10.39;53.84;99679.25;5029415;28;20079;-67
2022/01/10 04:37:49;;;;;;;3.22;1.55;;;;;;;10.39;53.88;99684.47;5042059;28;20041;-67
2022/01/10 04:40:15;;;;;;;3.28;1.77;;;;;;;10.39;53.81;99687.06;5047680;28;20048;-67
2022/01/10 04:42:40;;;;;;;2.40;1.42;;;;;;;10.38;53.74;99678.44;5045368;28;20116;-67
2022/01/10 04:45:06;;;;;;;3.40;1.75;;;;;;;10.38;53.80;99695.84;5046804;28;20029;-67
2022/01/10 04:47:32;;;;;;;3.40;1.80;;;;;;;10.39;53.93;99692.28;5050702;28;20117;-67
2022/01/10 04:52:27;;;;;;;2.78;1.70;;;;;;;10.37;53.95;99687.22;5042738;28;20071;-67
2022/01/10 04:54:53;;;;;;;2.25;1.13;;;;;;;10.39;53.99;99695.69;5051130;28;20123;-67
2022/01/10 04:57:18;;;;;;;2.10;1.38;;;;;;;10.38;53.99;99693.25;5047170;28;20515;-67
2022/01/10 04:59:44;;;;;;;2.67;1.42;;;;;;;10.38;53.88;99698.47;5045749;28;20549;-67
2022/01/10 05:02:10;;;;;;;2.05;1.10;;;;;;;10.38;53.83;99696.66;5045909;28;20033;-67
2022/01/10 05:04:36;;;;;;;2.47;1.20;;;;;;;10.38;53.80;99699.28;5028979;28;20048;-67
2022/01/10 05:07:02;;;;;;;4.05;1.55;;;;;;;10.37;53.93;99697.63;5044327;28;20515;-68
2022/01/10 05:09:27;;;;;;;2.97;1.88;;;;;;;10.39;53.88;99706.09;5046509;28;20102;-67
2022/01/10 05:11:53;;;;;;;2.30;1.10;;;;;;;10.39;53.85;99710.50;5047013;28;20028;-67
2022/01/10 05:14:18;;;;;;;4.38;1.52;;;;;;;10.37;53.81;99709.84;5045816;28;20064;-67
2022/01/10 05:16:45;;;;;;;3.70;1.80;;;;;;;10.37;53.92;99723.69;5044184;28;20039;-67
2022/01/10 05:19:10;;;;;;;2.63;1.30;;;;;;;10.37;54.14;99712.44;5028369;28;20079;-67
2022/01/10 05:21:36;;;;;;;3.35;1.05;;;;;;;10.36;53.91;99721.25;5041392;28;20025;-67
2022/01/10 05:24:02;;;;;;;2.55;1.13;;;;;;;10.36;54.15;99723.84;5044540;28;20029;-66
2022/01/10 05:26:27;;;;;;;2.70;1.02;;;;;;;10.36;54.00;99721.25;5046115;28;20127;-66
2022/01/10 05:28:55;;;;;;;1.48;0.90;;;;;;;10.36;53.94;99729.06;5045977;28;20028;-67
2022/01/10 05:31:21;;;;;;;2.40;1.40;;;;;;;10.37;53.83;99723.69;5028039;28;20399;-67
2022/01/10 05:33:47;;;;;;;3.05;1.20;;;;;;;10.38;53.99;99742.72;5046370;28;20028;-66
2022/01/10 05:36:12;;;;;;;3.40;1.25;;;;;;;10.37;53.92;99739.31;5045760;28;20037;-67
2022/01/10 05:38:38;;;;;;;2.35;1.15;;;;;;;10.37;53.89;99747.13;5027855;28;20574;-67
2022/01/10 05:41:03;;;;;;;2.20;1.30;;;;;;;10.36;54.02;99745.50;5044013;28;20135;-67
2022/01/10 05:43:29;;;;;;;2.30;1.13;;;;;;;10.36;53.90;99757.69;5045984;28;20468;-67
2022/01/10 05:45:55;;;;;;;1.90;0.82;;;;;;;10.36;53.88;99758.50;5043687;28;20037;-67
2022/01/10 05:48:25;;;;;;;2.22;1.40;;;;;;;10.36;54.23;99768.09;5045980;28;20033;-68
2022/01/10 05:50:52;;;;;;;3.85;1.10;;;;;;;10.35;54.13;99759.47;5043141;28;20039;-68
2022/01/10 05:53:18;;;;;;;1.85;1.15;;;;;;;10.36;54.04;99768.09;5046920;28;20028;-68
2022/01/10 05:55:45;;;;;;;1.75;0.90;;;;;;;10.36;54.08;99770.72;5041365;28;20112;-65
2022/01/10 05:58:11;;;;;;;1.73;0.85;;;;;;;10.36;53.94;99775.91;5044536;28;20517;-66
2022/01/10 06:00:37;;;;;;;2.38;1.05;;;;;;;10.39;53.85;99779.03;5042868;28;20032;-66
2022/01/10 06:03:03;;;;;;;2.17;0.98;;;;;;;10.43;53.89;99780.31;5024061;28;20032;-66
2022/01/10 06:05:31;;;;;;;2.50;0.65;;;;;;;10.47;53.82;99786.00;5045650;28;20091;-65
2022/01/10 06:08:04;;;;;;;2.65;0.93;;;;;;;10.50;53.92;99796.09;5027731;28;20037;-67
2022/01/10 06:10:30;;;;;;;1.80;0.65;;;;;;;10.50;53.89;99786.50;5027455;28;20032;-65
2022/01/10 06:12:57;;;;;;;2.00;1.20;;;;;;;10.51;53.81;99800.34;5044614;28;20017;-66
2022/01/10 06:15:23;;;;;;;1.77;0.82;;;;;;;10.51;53.71;99801.16;5041225;28;20035;-66
2022/01/10 06:17:49;;;;;;;2.35;1.17;;;;;;;10.52;53.82;99802.78;5045736;28;20492;-65
2022/01/10 06:20:15;;;;;;;1.58;0.70;;;;;;;10.52;53.76;99805.38;5046943;28;20059;-66
2022/01/10 06:22:41;;;;;;;3.40;1.08;;;;;;;10.53;53.88;99803.59;5042424;28;20392;-66
2022/01/10 06:25:09;;;;;;;1.65;1.13;;;;;;;10.53;53.87;99806.22;5045018;28;20117;-66
2022/01/10 06:27:35;;;;;;;2.55;0.98;;;;;;;10.54;53.74;99802.63;5046531;28;20154;-65
2022/01/10 06:30:00;;;;;;;2.10;1.20;;;;;;;10.54;53.79;99807.84;5041470;28;20471;-66
2022/01/10 06:32:26;;;;;;;2.33;0.98;;;;;;;10.53;53.73;99812.22;5039839;28;20330;-66
2022/01/10 06:34:52;;;;;;;2.10;1.23;;;;;;;10.53;53.83;99814.03;5047010;28;20108;-66
2022/01/10 06:37:19;;;;;;;2.45;1.30;;;;;;;10.54;53.56;99815.66;5027215;28;20075;-65
2022/01/10 06:39:45;;;;;;;3.17;1.52;;;;;;;10.54;53.69;99818.25;5046332;28;20415;-65
2022/01/10 06:42:11;;;;;;;3.30;1.60;;;;;;;10.55;53.67;99830.31;5045375;28;20036;-66
2022/01/10 06:44:38;;;;;;;3.28;1.25;;;;;;;10.55;53.57;99830.31;5044844;28;20500;-66
2022/01/10 06:47:04;;;;;;;2.78;1.23;;;;;;;10.55;53.67;99830.31;5045900;28;20400;-64
2022/01/10 06:49:29;;;;;;;3.85;1.20;;;;;;;10.54;53.46;99828.69;5045282;28;20496;-65
2022/01/10 06:51:55;;;;;;;2.72;1.38;;;;;;;10.54;53.50;99839.09;5045301;28;20443;-66
2022/01/10 06:54:20;;;;;;;5.57;2.33;;;;;;;10.53;53.51;99848.69;5046787;28;20037;-66
2022/01/10 06:56:46;;;;;;;3.22;1.35;;;;;;;10.53;53.49;99840.88;5045079;28;20021;-66
2022/01/10 06:59:11;;;;;;;3.22;1.67;;;;;;;10.52;53.43;99844.47;5045307;28;20072;-66
2022/01/10 07:01:37;;;;;;;3.30;1.63;;;;;;;10.53;53.59;99851.31;5041338;28;20021;-66
2022/01/10 07:04:03;;;;;;;4.13;2.20;;;;;;;10.52;53.38;99854.88;5041380;28;20032;-66
2022/01/10 07:06:28;;;;;;;4.15;1.70;;;;;;;10.52;53.45;99862.69;5043879;28;20408;-66
2022/01/10 07:08:54;;;;;;;4.47;2.22;;;;;;;10.52;53.28;99861.88;5046856;28;20040;-66
2022/01/10 07:11:19;;;;;;;6.03;2.38;;;;;;;10.52;53.27;99861.88;5047007;28;20037;-67
2022/01/10 07:13:45;;;;;;;4.72;2.20;;;;;;;10.52;53.33;99865.28;5046388;28;20451;-66
2022/01/10 07:16:11;;;;;;;4.50;2.20;;;;;;;10.51;53.34;99871.47;5046361;28;20497;-66
2022/01/10 07:18:37;;;;;;;7.00;2.63;;;;;;;10.52;53.29;99875.72;5045977;28;20040;-66
2022/01/10 07:21:03;;;;;;;3.13;1.92;;;;;;;10.52;53.30;99882.72;5046243;28;20132;-67
2022/01/10 07:23:29;;;;;;;5.15;2.60;;;;;;;10.53;53.13;99886.94;5046399;28;20060;-65
2022/01/10 07:25:55;;;;;;;3.97;2.78;;;;;;;10.53;53.28;99885.16;5028334;28;20534;-65
2022/01/10 07:28:20;;;;;;;4.13;1.88;;;;;;;10.52;53.03;99899.16;5046723;28;20029;-65
2022/01/10 07:30:46;;;;;;;4.32;2.53;;;;;;;10.54;53.07;99901.59;5046472;28;20033;-64
2022/01/10 07:33:12;;;;;;;5.47;2.60;;;;;;;10.53;53.07;99902.59;5028129;28;20453;-66
2022/01/10 07:35:37;;;;;;;6.53;2.90;;;;;;;10.53;52.92;99899.97;5046830;28;20029;-65
2022/01/10 07:38:03;;;;;;;5.30;2.67;;;;;;;10.53;52.85;99900.78;5046110;28;20025;-66
2022/01/10 07:40:28;;;;;;;4.53;2.58;;;;;;;10.53;52.96;99905.19;5046123;28;20051;-66
2022/01/10 07:42:54;;;;;;;6.50;2.40;;;;;;;10.51;53.15;99902.72;5045983;28;20021;-66
2022/01/10 07:45:20;;;;;;;6.55;2.50;;;;;;;10.51;52.97;99904.53;5046736;28;20033;-66
2022/01/10 07:47:45;;;;;;;4.72;2.50;;;;;;;10.51;53.03;99904.53;5029674;28;20492;-66
2022/01/10 07:50:11;;;;;;;5.13;2.75;;;;;;;10.53;53.00;99911.22;5050371;28;20040;-64
2022/01/10 07:52:37;;;;;;;4.78;2.78;;;;;;;10.54;52.87;99917.22;5049733;28;20081;-67
2022/01/10 07:55:04;;;;;;;6.82;2.92;;;;;;;10.54;52.85;99914.63;5049824;28;20037;-65
2022/01/10 07:57:29;;;;;;;4.18;2.55;;;;;;;10.54;53.01;99922.44;5050611;28;20025;-66
2022/01/10 07:59:55;;;;;;;4.93;3.10;;;;;;;10.53;52.90;99924.22;5050439;28;20074;-66
2022/01/10 08:02:21;;;;;;;6.07;2.80;;;;;;;10.54;52.92;99922.44;5050558;28;20120;-64
2022/01/10 08:04:48;;;;;;;4.97;2.80;;;;;;;10.54;52.93;99928.47;5050372;28;20407;-65
2022/01/10 08:07:14;;;;;;;4.63;2.75;;;;;;;10.57;52.83;99937.75;5050199;28;20028;-67
2022/01/10 08:09:40;;;;;;;6.38;2.85;;;;;;;10.57;52.69;99928.16;5051052;28;20036;-66
2022/01/10 08:12:06;;;;;;;7.13;2.80;;;;;;;10.53;52.90;99941.66;5050252;28;20512;-66
2022/01/10 08:14:33;;;;;;;7.00;2.20;;;;;;;10.45;53.17;99947.63;5050532;28;20551;-65
2022/01/10 08:16:59;;;;;;;4.43;2.38;;;;;;;10.42;53.41;99952.34;5048660;28;20423;-64
2022/01/10 08:19:26;;;;;;;6.88;2.30;;;;;;;10.39;53.37;99947.47;5041174;28;20025;-66
2022/01/10 08:21:55;;;;;;;5.97;2.40;;;;;;;10.38;53.47;99953.66;5011723;28;20060;-65
2022/01/10 08:24:22;;;;;;;3.17;2.03;;;;;;;10.36;53.48;99968.63;5019892;28;20169;-66
2022/01/10 08:26:49;;;;;;;6.10;2.50;;;;;;;10.36;53.52;99963.41;5041319;28;20078;-66
2022/01/10 08:31:52;;;;;;;3.92;2.03;;;;;;;10.35;53.68;99974.78;5347034;23;20068;-80
2022/01/10 08:34:17;;;;;;;4.10;2.17;;;;;;;10.35;53.47;99969.59;5023209;28;20041;-80
2022/01/10 08:36:43;;;;;;;3.72;2.03;;;;;;;10.35;53.69;99977.41;5022125;28;20124;-79
2022/01/10 08:39:20;;;;;;;3.80;2.03;;;;;;;10.34;53.46;99981.78;5026727;28;20022;-80
2022/01/10 08:41:45;;;;;;;3.80;1.75;;;;;;;10.40;53.81;99988.94;5010970;28;20067;-81
2022/01/10 08:44:14;;;;;;;3.90;1.17;;;;;;;10.42;53.95;99988.81;5011248;28;20048;-79
2022/01/10 08:46:39;;;;;;;3.55;1.63;;;;;;;10.45;53.97;99993.69;5022111;28;20033;-78
2022/01/10 08:49:05;;;;;;;3.08;1.70;;;;;;;10.49;54.04;99997.63;5030134;28;20032;-79
2022/01/10 08:51:32;;;;;;;4.60;2.08;;;;;;;10.54;54.14;100000.59;5027061;28;20021;-80
2022/01/10 08:53:59;;;;;;;4.55;2.10;;;;;;;10.57;53.97;100005.50;5024609;28;20137;-81
2022/01/10 08:56:24;;;;;;;4.63;1.70;;;;;;;10.63;53.69;100010.06;5008400;28;20523;-80
2022/01/10 08:58:50;;;;;;;4.45;1.70;;;;;;;10.63;53.85;100013.50;5021421;28;20448;-81
2022/01/10 09:01:15;;;;;;;7.75;1.83;;;;;;;10.63;53.89;100026.53;5023089;28;20045;-79
2022/01/10 09:03:41;;;;;;;3.35;1.55;;;;;;;10.64;53.90;100029.94;5022348;28;20044;-81
2022/01/10 09:06:06;;;;;;;2.95;1.20;;;;;;;10.65;53.83;100026.38;5020436;28;20025;-80
2022/01/10 09:08:36;;;;;;;3.25;1.95;;;;;;;10.64;53.88;100030.78;5016950;28;20488;-78
2022/01/10 09:11:02;;;;;;;3.22;1.88;;;;;;;10.66;53.77;100030.63;5026870;28;20048;-81
2022/01/10 09:13:28;;;;;;;6.90;2.05;;;;;;;10.64;53.85;100038.59;5021714;28;20056;-79
2022/01/10 09:15:54;;;;;;;2.38;1.23;;;;;;;10.61;53.94;100038.06;5013307;28;20172;-79
2022/01/10 09:18:20;;;;;;;3.22;1.35;;;;;;;10.62;54.02;100047.53;5026358;28;20068;-80
2022/01/10 09:20:46;;;;;;;6.53;1.90;;;;;;;10.62;54.11;100039.72;5024861;28;20030;-80
2022/01/10 09:23:12;;;;;;;2.67;1.55;;;;;;;10.59;54.19;100045.22;5029815;28;20048;-78
2022/01/10 09:25:38;;;;;;;8.75;2.55;;;;;;;10.60;54.09;100041.66;5030516;28;20109;-78
2022/01/10 09:28:04;;;;;;;3.88;1.85;;;;;;;10.61;54.00;100043.28;5029709;28;20104;-78
2022/01/10 09:30:30;;;;;;;5.60;1.80;;;;;;;10.62;54.13;100052.72;5029955;28;20029;-77
2022/01/10 09:32:56;;;;;;;4.93;1.45;;;;;;;10.62;54.02;100056.16;5029507;28;20048;-78
2022/01/10 09:35:23;;;;;;;3.22;1.27;;;;;;;10.64;54.13;100042.97;5029719;28;20037;-79
2022/01/10 09:37:49;;;;;;;5.47;2.28;;;;;;;10.66;53.84;100042.81;5029849;28;20053;-77
2022/01/10 09:40:15;;;;;;;3.72;1.75;;;;;;;10.66;53.89;100045.44;5030081;28;20036;-77
2022/01/10 09:42:41;;;;;;;6.72;2.03;;;;;;;10.69;53.39;100045.94;5029379;28;20029;-79
2022/01/10 09:45:08;;;;;;;4.28;1.70;;;;;;;10.73;53.29;100052.47;5029639;28;20025;-80
2022/01/10 09:47:34;;;;;;;3.17;1.90;;;;;;;10.69;53.44;100055.53;5029308;28;20507;-78
2022/01/10 09:50:00;;;;;;;4.68;1.83;;;;;;;10.64;53.80;100056.81;5029520;28;20087;-80
2022/01/10 09:52:27;;;;;;;7.22;1.95;;;;;;;10.66;53.82;100053.25;5029813;28;20057;-77
2022/01/10 09:54:53;;;;;;;5.00;1.92;;;;;;;10.66;53.69;100035.81;5029253;28;20037;-78
2022/01/10 09:57:22;;;;;;;6.18;2.47;;;;;;;10.72;53.26;100037.81;5029553;28;20425;-79
2022/01/10 09:59:48;;;;;;;3.95;1.85;;;;;;;10.76;53.17;100049.56;5029569;28;20029;-77
2022/01/10 10:02:17;;;;;;;3.72;2.22;;;;;;;10.75;53.29;100040.09;5029121;28;20041;-77
2022/01/10 10:04:43;;;;;;;4.85;2.05;;;;;;;10.79;52.64;100046.66;5029142;28;20500;-79
2022/01/10 10:07:09;;;;;;;4.88;2.47;;;;;;;10.83;52.48;100053.19;5029360;28;20049;-78
2022/01/10 10:09:35;;;;;;;4.28;1.35;;;;;;;10.86;52.28;100037.22;5028391;28;20192;-77
2022/01/10 10:12:03;;;;;;;4.20;1.50;;;;;;;10.84;52.61;100028.75;5029066;28;20112;-76
2022/01/10 10:14:28;;;;;;;2.83;1.30;;;;;;;10.79;52.72;100046.66;5028803;28;20096;-79
2022/01/10 10:16:57;;;;;;;2.90;1.60;;;;;;;10.72;52.95;100042.22;5028105;28;20127;-77
2022/01/10 10:19:25;;;;;;;3.08;1.08;;;;;;;10.66;53.17;100048.03;5028761;28;20056;-79
2022/01/10 10:21:51;;;;;;;3.85;1.73;;;;;;;10.62;53.46;100044.91;5029185;28;20017;-80
2022/01/10 10:24:17;;;;;;;2.97;1.13;;;;;;;10.61;53.48;100048.50;5028828;28;20036;-77
2022/01/10 10:26:43;;;;;;;2.50;1.20;;;;;;;10.60;53.58;100036.44;5028835;28;20021;-78
2022/01/10 10:29:14;;;;;;;3.67;1.30;;;;;;;10.57;53.56;100037.56;5029464;28;20040;-79
2022/01/10 10:31:46;;;;;;;2.65;1.50;;;;;;;10.57;53.57;100041.97;5028445;28;20037;-77
2022/01/10 10:34:17;;;;;;;2.10;1.13;;;;;;;10.61;53.58;100048.50;5029122;28;20108;-79
2022/01/10 10:36:43;;;;;;;3.83;1.00;;;;;;;10.69;53.07;100035.50;5028947;28;20065;-77
2022/01/10 10:39:10;;;;;;;3.78;1.08;;;;;;;10.78;52.74;100029.38;5030065;28;20103;-79
2022/01/10 10:41:38;;;;;;;4.32;1.05;;;;;;;10.80;52.89;100027.44;5029065;28;20029;-79
2022/01/10 10:44:04;;;;;;;1.83;0.70;;;;;;;10.78;52.82;100039.78;5028846;28;20033;-79
2022/01/10 10:46:30;;;;;;;2.03;1.00;;;;;;;10.81;52.22;100031.66;5028785;28;20036;-79
2022/01/10 10:49:03;;;;;;;3.40;0.70;;;;;;;10.85;51.35;100030.38;5028597;28;20124;-78
2022/01/10 10:51:35;;;;;;;4.03;1.08;;;;;;;10.88;50.60;100024.00;5029139;28;20030;-80
2022/01/10 10:54:09;;;;;;;1.60;0.60;;;;;;;10.87;50.50;100028.41;5028513;28;20389;-78
2022/01/10 10:56:40;;;;;;;2.28;0.80;;;;;;;10.85;50.99;100030.38;5028968;28;20038;-78
2022/01/10 10:59:07;;;;;;;2.13;0.65;;;;;;;10.81;51.55;100030.84;5010707;28;20031;-79
2022/01/10 11:01:37;;;;;;;1.92;0.90;;;;;;;10.79;51.75;100020.59;5028996;28;20468;-80
2022/01/10 11:04:04;;;;;;;2.35;0.98;;;;;;;10.78;51.95;100029.38;5028678;28;20404;-78
2022/01/10 11:06:31;;;;;;;2.30;0.55;;;;;;;10.74;52.00;100033.25;5028030;28;20022;-76
2022/01/10 11:08:59;;;;;;;1.83;0.70;;;;;;;10.75;51.92;100021.06;5028347;28;20026;-80
2022/01/10 11:11:25;;;;;;;1.40;0.70;;;;;;;10.77;51.65;100026.91;5028252;28;20119;-76
2022/01/10 11:13:55;;;;;;;2.25;0.43;;;;;;;10.80;50.39;100014.41;5027995;28;20143;-77
2022/01/10 11:16:21;;;;;;;1.17;0.40;;;;;;;10.87;49.83;100038.06;5028034;28;20037;-77
2022/01/10 11:18:48;;;;;;;1.38;0.57;;;;;;;10.89;50.16;100023.84;5028371;28;20039;-79
2022/01/10 11:21:15;;;;;;;1.83;0.73;;;;;;;10.86;50.60;100026.81;5027890;28;20029;-78
2022/01/10 11:23:44;;;;;;;6.28;0.82;;;;;;;10.82;51.24;100024.66;5027631;28;20276;-77
2022/01/10 11:26:12;;;;;;;2.30;0.80;;;;;;;10.80;51.61;100022.22;5018565;28;20034;-78
2022/01/10 11:28:49;;;;;;;10.30;0.88;;;;;;;10.81;51.60;100023.84;5019127;28;20029;-77
2022/01/10 11:31:26;;;;;;;5.57;0.90;;;;;;;10.76;52.62;100026.09;5019907;28;20030;-79
2022/01/10 11:33:54;;;;;;;3.78;0.60;;;;;;;10.71;52.65;100027.53;5021294;28;20042;-81
2022/01/10 11:36:23;;;;;;;6.22;0.68;;;;;;;10.70;52.96;100023.31;5023946;28;20034;-76
2022/01/10 11:38:55;;;;;;;2.25;1.00;;;;;;;10.71;52.93;100007.50;5015098;28;20065;-76
2022/01/10 11:41:24;;;;;;;8.43;1.15;;;;;;;10.73;52.92;100020.38;5016925;28;20025;-79